Time;durP1;ratioP1;P1;durP2;ratioP2;P2;SDS_P1;SDS_P2;PMS_P1;PMS_P2;Temp;Humidity;BMP_temperature;BMP_pressure;BME280_temperature;BME280_humidity;BME280_pressure;Samples;Min_cycle;Max_cycle;Signal;HPM_P1;HPM_P2
2021/12/03 00:00:57;;;;;;;4.13;2.97;;;;;;;4.46;100.00;98696.59;5051089;28;20202;-58
2021/12/03 00:03:25;;;;;;;3.93;3.63;;;;;;;4.40;100.00;98713.00;5051129;28;20204;-58
2021/12/03 00:05:55;;;;;;;4.30;3.93;;;;;;;4.28;100.00;98708.06;5050888;28;20265;-58
2021/12/03 00:08:23;;;;;;;7.63;5.47;;;;;;;4.18;100.00;98707.31;5051167;28;20202;-58
2021/12/03 00:10:54;;;;;;;4.37;2.90;;;;;;;4.02;100.00;98721.28;5050936;28;20206;-59
2021/12/03 00:13:24;;;;;;;6.77;4.63;;;;;;;3.81;100.00;98714.75;5050856;28;20286;-58
2021/12/03 00:15:52;;;;;;;5.33;4.30;;;;;;;3.71;100.00;98700.38;5050832;28;20289;-57
2021/12/03 00:18:19;;;;;;;2.97;2.37;;;;;;;3.65;100.00;98721.81;5050585;28;20210;-57
2021/12/03 00:20:46;;;;;;;3.50;3.10;;;;;;;3.47;100.00;98718.66;5050731;28;20293;-58
2021/12/03 00:23:13;;;;;;;10.43;4.07;;;;;;;3.48;100.00;98728.91;5050929;28;20196;-58
2021/12/03 00:25:40;;;;;;;5.80;2.97;;;;;;;3.40;100.00;98722.16;5050787;28;20211;-58
2021/12/03 00:28:07;;;;;;;4.40;3.60;;;;;;;3.34;100.00;98719.69;5050815;28;20212;-58
2021/12/03 00:30:36;;;;;;;6.73;2.70;;;;;;;3.43;100.00;98715.28;5050499;28;20204;-57
2021/12/03 00:33:04;;;;;;;7.53;2.70;;;;;;;3.44;100.00;98706.72;5050496;28;20257;-57
2021/12/03 00:35:32;;;;;;;2.77;2.60;;;;;;;3.48;100.00;98716.09;5050648;28;20200;-58
2021/12/03 00:38:00;;;;;;;1.07;1.07;;;;;;;3.40;100.00;98705.06;5050408;28;20235;-57
2021/12/03 00:40:29;;;;;;;3.20;2.13;;;;;;;3.37;100.00;98725.63;5050395;28;20314;-58
2021/12/03 00:42:56;;;;;;;2.87;2.30;;;;;;;3.25;100.00;98742.03;5050465;28;20239;-58
2021/12/03 00:45:23;;;;;;;7.80;2.57;;;;;;;3.49;100.00;98725.47;5050303;28;20648;-56
2021/12/03 00:47:52;;;;;;;12.27;3.30;;;;;;;3.58;100.00;98725.34;5050259;28;20661;-58
2021/12/03 00:50:22;;;;;;;3.67;2.93;;;;;;;3.58;100.00;98706.53;5050342;28;20226;-58
2021/12/03 00:52:50;;;;;;;0.97;0.97;;;;;;;3.56;100.00;98728.81;5050260;28;20624;-58
2021/12/03 00:55:18;;;;;;;2.83;2.67;;;;;;;3.51;100.00;98744.25;5050185;28;20206;-57
2021/12/03 00:57:45;;;;;;;1.87;1.77;;;;;;;3.50;100.00;98737.41;5050203;28;20284;-58
2021/12/03 01:00:16;;;;;;;3.60;3.03;;;;;;;3.51;100.00;98735.69;5050149;28;20219;-58
2021/12/03 01:02:43;;;;;;;1.50;1.40;;;;;;;3.53;100.00;98729.69;5050247;28;20201;-58
2021/12/03 01:05:11;;;;;;;2.23;2.13;;;;;;;3.59;100.00;98721.06;5050086;28;20335;-57
2021/12/03 01:07:38;;;;;;;1.13;1.13;;;;;;;3.62;100.00;98711.59;5049924;28;20201;-57
2021/12/03 01:10:07;;;;;;;3.17;2.90;;;;;;;3.63;100.00;98708.16;5049418;28;20221;-58
2021/12/03 01:12:34;;;;;;;7.50;3.27;;;;;;;3.42;100.00;98716.16;5049855;28;20220;-58
2021/12/03 01:15:01;;;;;;;2.67;2.57;;;;;;;3.22;100.00;98730.94;5050128;28;20205;-58
2021/12/03 01:17:28;;;;;;;2.17;2.07;;;;;;;3.28;100.00;98716.31;5049914;28;20207;-57
2021/12/03 01:19:55;;;;;;;6.50;3.00;;;;;;;3.36;100.00;98689.75;5049919;28;20276;-57
2021/12/03 01:22:23;;;;;;;1.43;1.43;;;;;;;3.40;100.00;98692.22;5049978;28;20285;-58
2021/12/03 01:24:50;;;;;;;2.73;2.53;;;;;;;3.27;100.00;98680.47;5049840;28;20283;-57
2021/12/03 01:27:17;;;;;;;2.10;1.97;;;;;;;3.24;100.00;98667.66;5049925;28;20209;-57
2021/12/03 01:29:44;;;;;;;1.83;1.73;;;;;;;3.20;100.00;98666.84;5050236;28;20586;-57
2021/12/03 01:32:11;;;;;;;4.80;3.07;;;;;;;3.24;100.00;98672.81;5050000;28;20290;-56
2021/12/03 01:34:38;;;;;;;2.70;2.33;;;;;;;3.30;100.00;98682.97;5049862;28;20199;-56
2021/12/03 01:37:06;;;;;;;5.07;2.13;;;;;;;3.23;100.00;98671.09;5049969;28;20607;-56
2021/12/03 01:39:34;;;;;;;0.90;0.90;;;;;;;3.30;100.00;98667.56;5049717;28;20673;-56
2021/12/03 01:42:01;;;;;;;2.87;2.63;;;;;;;3.35;100.00;98686.31;5050105;28;20204;-57
2021/12/03 01:44:28;;;;;;;1.20;1.20;;;;;;;3.39;100.00;98664.88;5049903;28;20204;-55
2021/12/03 01:46:55;;;;;;;2.67;2.50;;;;;;;3.21;100.00;98686.50;5049937;28;20202;-57
2021/12/03 01:49:23;;;;;;;2.80;2.60;;;;;;;3.20;100.00;98671.13;5049663;28;20214;-57
2021/12/03 01:51:50;;;;;;;1.67;1.57;;;;;;;3.25;100.00;98684.75;5049848;28;20266;-58
2021/12/03 01:54:17;;;;;;;3.37;3.13;;;;;;;3.17;100.00;98689.97;5049773;28;20758;-57
2021/12/03 01:56:45;;;;;;;4.33;3.03;;;;;;;3.41;100.00;98670.84;5049991;28;20711;-58
2021/12/03 01:59:12;;;;;;;3.63;2.70;;;;;;;3.60;100.00;98674.88;5049611;28;20200;-58
2021/12/03 02:01:39;;;;;;;4.67;1.80;;;;;;;3.76;100.00;98675.47;5049552;28;20295;-56
2021/12/03 02:04:06;;;;;;;2.43;2.23;;;;;;;3.83;100.00;98659.13;5049362;28;20241;-57
2021/12/03 02:06:33;;;;;;;3.10;1.63;;;;;;;3.85;100.00;98659.06;5049990;28;20203;-58
2021/12/03 02:09:01;;;;;;;9.00;2.03;;;;;;;3.63;100.00;98615.78;5049398;28;20214;-57
2021/12/03 02:11:29;;;;;;;1.07;0.93;;;;;;;3.70;100.00;98643.94;5049724;28;20674;-57
2021/12/03 02:13:57;;;;;;;1.17;1.13;;;;;;;3.71;100.00;98650.75;5049523;28;20734;-58
2021/12/03 02:16:26;;;;;;;3.97;1.93;;;;;;;3.71;100.00;98637.94;5049453;28;20231;-58
2021/12/03 02:18:54;;;;;;;3.97;1.90;;;;;;;3.59;100.00;98623.56;5049387;28;20212;-57
2021/12/03 02:21:23;;;;;;;1.57;1.50;;;;;;;3.71;100.00;98640.50;5049670;28;20196;-58
2021/12/03 02:23:51;;;;;;;4.40;4.00;;;;;;;3.71;100.00;98640.50;5053029;28;20195;-57
2021/12/03 02:26:18;;;;;;;5.73;4.10;;;;;;;3.52;100.00;98650.16;5053122;28;20203;-58
2021/12/03 02:28:48;;;;;;;4.80;3.53;;;;;;;3.34;100.00;98658.97;5052898;28;20199;-57
2021/12/03 02:31:17;;;;;;;2.10;2.00;;;;;;;3.06;100.00;98653.34;5053020;28;20559;-58
2021/12/03 02:33:44;;;;;;;4.77;3.03;;;;;;;3.22;100.00;98669.41;5052813;28;20252;-57
2021/12/03 02:36:12;;;;;;;5.93;4.47;;;;;;;3.34;100.00;98648.72;5052910;28;20266;-57
2021/12/03 02:38:41;;;;;;;1.63;1.53;;;;;;;3.45;100.00;98652.00;5052993;28;20225;-58
2021/12/03 02:41:09;;;;;;;2.93;2.27;;;;;;;3.45;100.00;98661.41;5052689;28;20287;-58
2021/12/03 02:43:36;;;;;;;21.63;2.27;;;;;;;3.51;100.00;98659.59;5052726;28;20209;-57
2021/12/03 02:46:03;;;;;;;3.47;1.70;;;;;;;3.49;100.00;98655.38;5052647;28;20200;-58
2021/12/03 02:48:32;;;;;;;10.47;3.23;;;;;;;3.53;100.00;98655.28;5052484;28;20676;-57
2021/12/03 02:51:06;;;;;;;2.43;2.23;;;;;;;3.36;100.00;98636.72;5052495;28;20198;-57
2021/12/03 02:53:33;;;;;;;3.37;3.03;;;;;;;3.40;100.00;98643.50;5052453;28;20232;-57
2021/12/03 02:56:02;;;;;;;1.90;1.83;;;;;;;3.23;100.00;98617.25;5052502;28;20194;-57
2021/12/03 02:58:29;;;;;;;3.57;3.27;;;;;;;3.25;100.00;98628.34;5052507;28;20200;-56
2021/12/03 03:00:57;;;;;;;4.07;2.53;;;;;;;3.33;100.00;98647.03;5052240;28;20205;-59
2021/12/03 03:03:24;;;;;;;4.37;4.07;;;;;;;3.24;100.00;98603.56;5052307;28;20200;-58
2021/12/03 03:05:55;;;;;;;2.43;2.20;;;;;;;3.70;100.00;98636.25;5052431;28;20201;-58
2021/12/03 03:08:22;;;;;;;2.17;2.07;;;;;;;3.94;100.00;98630.72;5052593;28;20236;-57
2021/12/03 03:10:50;;;;;;;3.13;2.83;;;;;;;4.03;100.00;98637.41;5052260;28;20238;-59
2021/12/03 03:13:19;;;;;;;2.73;2.40;;;;;;;4.09;100.00;98630.44;5052067;28;20259;-58
2021/12/03 03:15:46;;;;;;;2.37;1.77;;;;;;;4.11;100.00;98633.00;5052003;28;20207;-60
2021/12/03 03:18:16;;;;;;;11.63;1.83;;;;;;;4.13;100.00;98649.22;5052157;28;20207;-59
2021/12/03 03:20:44;;;;;;;2.53;2.33;;;;;;;4.10;100.00;98652.69;5051993;28;20208;-57
2021/12/03 03:23:13;;;;;;;17.03;4.40;;;;;;;4.13;100.00;98651.78;5052080;28;20278;-57
2021/12/03 03:25:41;;;;;;;3.67;2.63;;;;;;;4.07;100.00;98637.31;5052191;28;20672;-56
2021/12/03 03:28:09;;;;;;;2.83;1.40;;;;;;;4.08;100.00;98646.72;5051895;28;20199;-57
2021/12/03 03:30:38;;;;;;;3.97;1.87;;;;;;;4.08;100.00;98668.97;5051875;28;20290;-57
2021/12/03 03:33:05;;;;;;;2.67;1.73;;;;;;;3.76;100.00;98654.09;5051586;28;20729;-56
2021/12/03 03:35:33;;;;;;;6.40;2.47;;;;;;;3.67;100.00;98649.09;5051923;28;20223;-56
2021/12/03 03:38:00;;;;;;;6.63;3.90;;;;;;;3.53;100.00;98639.88;5051743;28;20699;-57
2021/12/03 03:40:28;;;;;;;3.47;2.23;;;;;;;3.56;100.00;98632.16;5034518;28;20264;-58
2021/12/03 03:42:57;;;;;;;2.73;2.53;;;;;;;3.46;100.00;98596.41;5031065;28;20783;-56
2021/12/03 03:45:29;;;;;;;7.10;2.80;;;;;;;3.52;100.00;98614.25;5031194;28;20213;-57
2021/12/03 03:47:57;;;;;;;2.93;2.67;;;;;;;3.71;100.00;98632.81;5030378;28;20224;-57
2021/12/03 03:50:25;;;;;;;1.47;1.47;;;;;;;3.70;100.00;98615.72;5044616;28;20231;-57
2021/12/03 03:52:55;;;;;;;16.50;3.10;;;;;;;3.79;100.00;98638.66;5051122;28;20199;-57
2021/12/03 03:55:23;;;;;;;4.60;2.73;;;;;;;3.85;100.00;98651.38;5048224;28;20229;-58
2021/12/03 03:57:54;;;;;;;8.47;4.47;;;;;;;3.90;100.00;98653.00;5050161;28;20227;-59
2021/12/03 04:00:25;;;;;;;4.03;3.83;;;;;;;3.71;100.00;98643.91;5049821;28;20245;-59
2021/12/03 04:02:52;;;;;;;6.90;3.77;;;;;;;3.64;100.00;98648.28;5047393;28;20384;-59
2021/12/03 04:05:21;;;;;;;3.40;3.10;;;;;;;3.70;100.00;98651.63;5049060;28;20242;-60
2021/12/03 04:07:48;;;;;;;9.43;4.17;;;;;;;3.62;100.00;98634.63;5047558;28;20233;-58
2021/12/03 04:10:15;;;;;;;2.73;2.57;;;;;;;3.60;100.00;98628.69;5047760;28;20226;-58
2021/12/03 04:12:42;;;;;;;11.57;3.70;;;;;;;3.69;100.00;98665.34;5047568;28;20217;-58
2021/12/03 04:15:12;;;;;;;4.53;3.23;;;;;;;3.63;100.00;98653.44;5044508;28;20231;-58
2021/12/03 04:17:40;;;;;;;2.67;2.47;;;;;;;3.70;100.00;98643.94;5048107;28;20823;-59
2021/12/03 04:20:12;;;;;;;1.97;1.73;;;;;;;3.77;100.00;98660.94;5048874;28;20217;-55
2021/12/03 04:22:42;;;;;;;3.23;3.03;;;;;;;3.72;100.00;98649.91;5044886;28;20312;-56
2021/12/03 04:25:12;;;;;;;2.67;2.57;;;;;;;3.56;100.00;98632.16;5044729;28;20214;-56
2021/12/03 04:27:39;;;;;;;4.63;4.40;;;;;;;3.68;100.00;98643.09;5045181;28;20244;-55
2021/12/03 04:30:11;;;;;;;3.37;3.07;;;;;;;3.72;100.00;98640.47;5048975;28;20227;-54
2021/12/03 04:32:38;;;;;;;4.93;4.20;;;;;;;3.73;100.00;98639.59;5048284;28;20306;-54
2021/12/03 04:35:06;;;;;;;6.60;2.37;;;;;;;3.86;100.00;98629.97;5048748;28;20573;-54
2021/12/03 04:37:33;;;;;;;14.67;5.23;;;;;;;3.85;100.00;98647.09;5049083;28;20610;-56
2021/12/03 04:40:01;;;;;;;4.27;3.80;;;;;;;3.80;100.00;98648.06;5048941;28;20238;-55
2021/12/03 04:42:28;;;;;;;16.43;3.80;;;;;;;3.78;100.00;98649.78;5048406;28;20675;-54
2021/12/03 04:44:55;;;;;;;3.80;3.57;;;;;;;3.62;100.00;98634.63;5048409;28;20216;-55
2021/12/03 04:47:22;;;;;;;6.47;3.53;;;;;;;3.77;100.00;98653.22;5048081;28;20223;-53
2021/12/03 04:49:49;;;;;;;3.40;3.00;;;;;;;3.70;100.00;98641.38;5048744;28;20203;-54
2021/12/03 04:52:16;;;;;;;14.23;4.10;;;;;;;3.62;100.00;98642.31;5049012;28;20204;-55
2021/12/03 04:54:43;;;;;;;2.60;2.37;;;;;;;3.54;100.00;98656.97;5048679;28;20277;-54
2021/12/03 04:57:12;;;;;;;11.17;4.73;;;;;;;3.49;100.00;98663.91;5045824;28;20251;-55
2021/12/03 04:59:40;;;;;;;3.33;3.13;;;;;;;3.40;100.00;98664.00;5048064;28;20223;-55
2021/12/03 05:02:07;;;;;;;3.33;2.67;;;;;;;3.16;100.00;98666.94;5048399;28;20721;-55
2021/12/03 05:04:37;;;;;;;6.63;1.87;;;;;;;3.05;100.00;98667.03;5048074;28;20745;-55
2021/12/03 05:07:16;;;;;;;1.83;1.50;;;;;;;2.89;100.00;98671.50;5047347;28;20218;-56
2021/12/03 05:09:44;;;;;;;7.93;3.63;;;;;;;2.84;100.00;98667.28;5048455;28;20607;-57
2021/12/03 05:12:13;;;;;;;5.73;2.37;;;;;;;2.79;100.00;98675.06;5029513;28;20208;-56
2021/12/03 05:14:39;;;;;;;5.10;3.10;;;;;;;2.77;100.00;98687.03;5029526;28;20624;-57
2021/12/03 05:17:06;;;;;;;2.77;2.57;;;;;;;2.76;100.00;98676.78;5030050;28;20207;-56
2021/12/03 05:19:33;;;;;;;1.73;1.73;;;;;;;2.71;100.00;98687.06;5028715;28;20194;-57
2021/12/03 05:22:00;;;;;;;4.13;2.70;;;;;;;2.63;100.00;98701.69;5029108;28;20197;-56
2021/12/03 05:24:27;;;;;;;3.20;1.70;;;;;;;2.75;100.00;98693.88;5029365;28;20196;-57
2021/12/03 05:26:55;;;;;;;3.37;2.50;;;;;;;2.71;100.00;98702.44;5029886;28;20198;-57
2021/12/03 05:29:23;;;;;;;9.23;2.00;;;;;;;2.68;100.00;98706.78;5030661;28;20201;-57
2021/12/03 05:31:51;;;;;;;3.57;3.23;;;;;;;2.60;100.00;98704.28;5048250;28;20231;-56
2021/12/03 05:34:18;;;;;;;3.17;2.37;;;;;;;2.50;100.00;98718.88;5048314;28;20223;-56
2021/12/03 05:36:46;;;;;;;3.33;3.07;;;;;;;2.57;100.00;98708.59;5048228;28;20196;-56
2021/12/03 05:39:14;;;;;;;1.50;1.40;;;;;;;2.83;100.00;98692.06;5048539;28;20189;-55
2021/12/03 05:41:41;;;;;;;4.70;2.00;;;;;;;2.98;100.00;98690.22;5046066;28;20204;-55
2021/12/03 05:44:08;;;;;;;6.03;2.50;;;;;;;3.17;100.00;98695.09;5049432;28;20205;-56
2021/12/03 05:46:36;;;;;;;1.37;1.30;;;;;;;3.18;100.00;98703.63;5030895;28;20228;-57
2021/12/03 05:49:04;;;;;;;2.33;1.73;;;;;;;3.23;100.00;98689.91;5033148;28;20242;-57
2021/12/03 05:51:31;;;;;;;8.27;2.97;;;;;;;3.26;100.00;98684.75;5048876;28;20216;-56
2021/12/03 05:53:57;;;;;;;2.27;2.17;;;;;;;3.25;100.00;98677.91;5048987;28;20617;-57
2021/12/03 05:56:24;;;;;;;3.53;2.47;;;;;;;3.44;100.00;98719.53;5048846;28;20221;-56
2021/12/03 05:58:52;;;;;;;12.27;3.23;;;;;;;3.54;100.00;98703.16;5052374;28;20300;-56
2021/12/03 06:01:19;;;;;;;3.30;3.07;;;;;;;3.62;100.00;98721.84;5052960;28;20225;-58
2021/12/03 06:03:47;;;;;;;1.17;1.17;;;;;;;3.72;100.00;98716.63;5052594;28;20242;-57
2021/12/03 06:06:15;;;;;;;4.00;2.07;;;;;;;3.78;100.00;98696.00;5052894;28;20613;-58
2021/12/03 06:08:42;;;;;;;2.87;2.67;;;;;;;3.85;100.00;98712.97;5051091;28;20214;-57
2021/12/03 06:11:10;;;;;;;1.70;1.67;;;;;;;3.85;100.00;98723.25;5051636;28;20627;-56
2021/12/03 06:13:39;;;;;;;2.70;2.07;;;;;;;3.89;100.00;98724.91;5050587;28;20226;-58
2021/12/03 06:16:07;;;;;;;9.80;2.83;;;;;;;3.99;100.00;98722.19;5048879;28;20310;-58
2021/12/03 06:18:34;;;;;;;1.67;1.60;;;;;;;4.09;100.00;98740.00;5051179;28;20400;-57
2021/12/03 06:21:03;;;;;;;2.13;1.53;;;;;;;4.17;100.00;98731.34;5050630;28;20626;-56
2021/12/03 06:23:30;;;;;;;1.80;1.70;;;;;;;4.20;100.00;98744.09;5050966;28;20230;-56
2021/12/03 06:25:58;;;;;;;2.60;2.40;;;;;;;4.27;100.00;98742.31;5051132;28;20218;-58
2021/12/03 06:28:25;;;;;;;4.07;2.67;;;;;;;4.32;100.00;98756.75;5050529;28;20223;-57
2021/12/03 06:30:52;;;;;;;2.37;2.20;;;;;;;4.45;100.00;98741.16;5051578;28;20224;-57
2021/12/03 06:33:19;;;;;;;5.00;3.03;;;;;;;4.30;100.00;98722.53;5052044;28;20224;-57
2021/12/03 06:35:46;;;;;;;4.73;2.53;;;;;;;4.31;100.00;98739.66;5051244;28;20761;-56
2021/12/03 06:38:15;;;;;;;2.30;1.60;;;;;;;4.40;100.00;98723.25;5052430;28;20238;-56
2021/12/03 06:40:42;;;;;;;6.80;1.70;;;;;;;4.55;100.00;98756.38;5051958;28;20307;-57
2021/12/03 06:43:09;;;;;;;1.63;1.53;;;;;;;4.66;100.00;98733.06;5051851;28;20253;-57
2021/12/03 06:45:37;;;;;;;1.53;1.43;;;;;;;4.80;100.00;98751.69;5051707;28;20681;-57
2021/12/03 06:48:04;;;;;;;6.87;2.53;;;;;;;4.91;100.00;98736.91;5051983;28;20758;-57
2021/12/03 06:50:32;;;;;;;2.43;2.23;;;;;;;5.00;100.00;98759.03;5051518;28;20227;-56
2021/12/03 06:53:02;;;;;;;4.90;2.90;;;;;;;5.14;100.00;98780.19;5052391;28;20314;-57
2021/12/03 06:55:37;;;;;;;2.30;1.87;;;;;;;5.20;100.00;98758.63;5050971;28;20238;-57
2021/12/03 06:58:04;;;;;;;2.40;1.50;;;;;;;5.25;100.00;98777.41;5049988;28;20192;-56
2021/12/03 07:00:31;;;;;;;7.23;3.53;;;;;;;5.27;100.00;98749.94;5052014;28;20200;-57
2021/12/03 07:02:58;;;;;;;1.60;1.60;;;;;;;4.94;100.00;98766.88;5052163;28;20207;-55
2021/12/03 07:05:25;;;;;;;3.60;3.13;;;;;;;4.74;100.00;98756.91;5048441;28;20232;-58
2021/12/03 07:07:52;;;;;;;0.93;0.93;;;;;;;4.65;100.00;98769.94;5049573;28;20334;-57
2021/12/03 07:10:19;;;;;;;4.33;2.40;;;;;;;4.50;100.00;98775.34;5047474;28;20297;-56
2021/12/03 07:12:48;;;;;;;2.50;1.93;;;;;;;4.37;100.00;98772.13;5050878;28;20782;-57
2021/12/03 07:15:15;;;;;;;3.33;2.97;;;;;;;4.52;100.00;98778.72;5050685;28;20235;-58
2021/12/03 07:17:42;;;;;;;3.13;2.70;;;;;;;4.65;100.00;98780.22;5050747;28;20529;-57
2021/12/03 07:20:10;;;;;;;6.10;2.20;;;;;;;4.64;100.00;98781.06;5051004;28;20311;-57
2021/12/03 07:22:38;;;;;;;3.00;1.57;;;;;;;4.74;100.00;98808.31;5050907;28;20769;-58
2021/12/03 07:25:06;;;;;;;4.50;1.47;;;;;;;4.79;100.00;98810.81;5051338;28;20224;-56
2021/12/03 07:27:33;;;;;;;3.23;2.07;;;;;;;4.82;100.00;98803.06;5050854;28;20231;-56
2021/12/03 07:30:02;;;;;;;2.70;1.87;;;;;;;4.83;100.00;98776.50;5051363;28;20310;-56
2021/12/03 07:32:30;;;;;;;8.20;1.93;;;;;;;5.02;100.00;98773.56;5051191;28;20216;-56
2021/12/03 07:34:57;;;;;;;5.90;3.23;;;;;;;5.45;100.00;98777.88;5050762;28;20224;-56
2021/12/03 07:37:24;;;;;;;2.43;2.17;;;;;;;5.79;100.00;98778.03;5051220;28;20224;-56
2021/12/03 07:39:51;;;;;;;2.23;2.03;;;;;;;6.03;100.00;98798.13;5051068;28;20299;-56
2021/12/03 07:42:18;;;;;;;2.03;1.93;;;;;;;6.03;100.00;98787.81;5051163;28;20315;-57
2021/12/03 07:44:45;;;;;;;13.43;3.20;;;;;;;5.92;100.00;98776.91;5050755;28;20212;-56
2021/12/03 07:47:14;;;;;;;1.23;1.17;;;;;;;6.00;100.00;98792.19;5050806;28;20216;-56
2021/12/03 07:49:41;;;;;;;2.63;1.80;;;;;;;6.36;100.00;98793.94;5047730;28;20230;-57
2021/12/03 07:52:11;;;;;;;3.43;1.60;;;;;;;6.67;100.00;98808.66;5050596;28;20224;-57
2021/12/03 07:54:38;;;;;;;1.37;1.33;;;;;;;6.87;100.00;98803.88;5049462;28;20713;-58
2021/12/03 07:57:05;;;;;;;2.40;2.30;;;;;;;7.01;99.48;98778.56;5050667;28;20695;-58
2021/12/03 07:59:32;;;;;;;1.47;1.23;;;;;;;7.11;98.84;98800.66;5050758;28;20212;-56
2021/12/03 08:01:59;;;;;;;4.33;3.10;;;;;;;7.16;98.20;98796.22;5050534;28;20224;-58
2021/12/03 08:04:27;;;;;;;1.70;1.60;;;;;;;7.25;97.65;98829.53;5049433;28;20232;-58
2021/12/03 08:06:54;;;;;;;1.73;0.77;;;;;;;7.30;98.94;98829.41;5050155;28;20326;-59
2021/12/03 08:09:23;;;;;;;0.80;0.80;;;;;;;7.18;100.00;98802.19;5049235;28;20248;-58
2021/12/03 08:11:50;;;;;;;2.60;2.40;;;;;;;7.17;100.00;98792.75;5046590;28;20224;-59
2021/12/03 08:14:17;;;;;;;4.67;1.87;;;;;;;7.10;100.00;98783.50;5046637;28;20300;-58
2021/12/03 08:16:44;;;;;;;3.97;3.07;;;;;;;7.06;100.00;98786.19;5047426;28;20220;-58
2021/12/03 08:19:11;;;;;;;2.60;1.90;;;;;;;7.10;100.00;98806.72;5050712;28;20197;-58
2021/12/03 08:21:39;;;;;;;0.93;0.77;;;;;;;7.23;100.00;98795.16;5051335;28;20200;-58
2021/12/03 08:24:07;;;;;;;2.33;1.40;;;;;;;7.32;100.00;98808.72;5050675;28;20197;-58
2021/12/03 08:26:34;;;;;;;4.50;3.43;;;;;;;7.55;100.00;98798.63;5050760;28;20200;-58
2021/12/03 08:29:01;;;;;;;3.63;3.23;;;;;;;7.70;100.00;98800.75;5051078;28;20205;-59
2021/12/03 08:31:28;;;;;;;2.43;1.73;;;;;;;7.95;99.71;98795.72;5050922;28;20203;-57
2021/12/03 08:33:55;;;;;;;9.17;3.73;;;;;;;8.09;98.35;98810.81;5050869;28;20754;-58
2021/12/03 08:36:22;;;;;;;6.07;3.80;;;;;;;8.28;98.24;98799.88;5050504;28;20236;-59
2021/12/03 08:38:50;;;;;;;5.97;2.90;;;;;;;8.56;96.85;98784.38;5050431;28;20197;-58
2021/12/03 08:41:18;;;;;;;2.90;2.00;;;;;;;8.53;96.94;98743.09;5039733;28;20227;-57
2021/12/03 08:43:46;;;;;;;6.03;3.60;;;;;;;8.76;96.38;98775.94;5038553;28;20303;-58
2021/12/03 08:46:14;;;;;;;1.93;1.83;;;;;;;8.78;96.81;98765.56;5049518;28;20220;-56
2021/12/03 08:48:44;;;;;;;4.13;3.67;;;;;;;8.90;96.08;98752.22;5049542;28;20224;-57
2021/12/03 08:51:35;;;;;;;2.00;1.90;;;;;;;9.37;94.54;98766.91;5037802;28;20216;-57
2021/12/03 08:56:48;;;;;;;2.97;1.90;;;;;;;9.57;93.18;98742.88;5048858;28;20236;-56
2021/12/03 08:59:15;;;;;;;7.97;3.97;;;;;;;9.64;93.95;98772.84;5049742;28;20239;-56
2021/12/03 09:01:43;;;;;;;3.77;3.03;;;;;;;9.75;93.34;98764.66;5049339;28;20227;-56
2021/12/03 09:04:10;;;;;;;2.57;2.37;;;;;;;9.65;93.07;98719.28;5049834;28;20729;-56
2021/12/03 09:06:37;;;;;;;2.27;2.10;;;;;;;9.68;93.65;98719.16;5049428;28;20248;-56
2021/12/03 09:09:07;;;;;;;6.43;3.93;;;;;;;9.63;94.47;98739.22;5049784;28;20220;-55
2021/12/03 09:11:35;;;;;;;3.23;2.27;;;;;;;9.38;96.06;98719.38;5048759;28;20216;-56
2021/12/03 09:14:06;;;;;;;4.20;3.67;;;;;;;9.33;96.41;98726.50;5049480;28;20251;-56
2021/12/03 09:16:34;;;;;;;2.57;2.37;;;;;;;9.57;95.27;98719.56;5049526;28;20757;-57
2021/12/03 09:19:03;;;;;;;5.53;2.50;;;;;;;9.75;94.51;98731.81;5049657;28;20225;-58
2021/12/03 09:21:32;;;;;;;3.57;3.33;;;;;;;9.86;93.63;98728.81;5049344;28;20612;-57
2021/12/03 09:24:08;;;;;;;9.80;2.87;;;;;;;9.88;93.70;98718.41;5049413;28;20224;-58
2021/12/03 09:26:39;;;;;;;1.83;1.73;;;;;;;9.84;94.55;98731.47;5048485;28;20220;-58
2021/12/03 09:29:08;;;;;;;7.80;3.83;;;;;;;9.83;95.17;98726.34;5049884;28;20726;-59
2021/12/03 09:31:37;;;;;;;6.47;3.50;;;;;;;9.99;93.62;98708.44;5050030;28;20224;-59
2021/12/03 09:34:08;;;;;;;9.30;5.03;;;;;;;10.03;92.73;98704.84;5053847;28;20228;-59
2021/12/03 09:36:36;;;;;;;15.50;4.83;;;;;;;9.97;93.51;98731.00;5053327;28;20224;-60
2021/12/03 09:39:05;;;;;;;5.00;3.53;;;;;;;9.93;92.90;98695.75;5053193;28;20319;-59
2021/12/03 09:41:32;;;;;;;9.50;4.43;;;;;;;9.89;93.09;98731.31;5053316;28;20608;-58
2021/12/03 09:44:01;;;;;;;4.03;3.00;;;;;;;9.77;93.13;98717.06;5053350;28;20314;-59
2021/12/03 09:46:30;;;;;;;7.03;4.00;;;;;;;9.88;92.87;98719.25;5053426;28;20212;-57
2021/12/03 09:51:49;;;;;;;3.53;1.57;;;;;;;10.22;90.80;98702.38;5049944;28;20216;-57
2021/12/03 09:57:02;;;;;;;6.17;3.57;;;;;;;10.43;89.68;98722.25;5049977;28;20228;-58
2021/12/03 10:13:21;;;;;;;5.27;4.27;;;;;;;10.92;87.46;98687.31;5051038;28;20196;-55
2021/12/03 10:15:59;;;;;;;6.40;4.40;;;;;;;11.04;86.66;98701.53;5050770;28;20251;-56
2021/12/03 10:18:40;;;;;;;3.83;3.23;;;;;;;10.97;87.68;98707.88;5049458;28;20258;-58
2021/12/03 10:21:15;;;;;;;5.30;3.10;;;;;;;10.81;88.65;98692.97;5050863;28;20291;-58
2021/12/03 10:29:41;;;;;;;5.03;2.97;;;;;;;10.88;89.30;98676.22;5052994;28;20299;-57
2021/12/03 10:40:47;;;;;;;9.77;2.50;;;;;;;11.06;88.02;98608.81;5052738;28;20203;-58
2021/12/03 10:48:56;;;;;;;9.33;3.90;;;;;;;11.34;88.22;98656.00;5012662;28;20662;-60
2021/12/03 10:51:42;;;;;;;5.77;4.37;;;;;;;11.49;87.21;98665.69;5053009;28;20204;-60
2021/12/03 10:54:18;;;;;;;13.13;3.97;;;;;;;11.52;87.02;98670.72;5052614;28;20275;-60
2021/12/03 11:07:59;;;;;;;5.37;4.43;;;;;;;12.10;84.44;98668.03;5052689;28;20196;-60
2021/12/03 11:13:46;;;;;;;11.50;5.57;;;;;;;11.76;85.23;98654.94;5052752;28;20582;-60
2021/12/03 13:12:32;;;;;;;10.93;6.10;;;;;;;11.91;92.54;98578.81;5042482;28;20318;-56
2021/12/03 14:00:32;;;;;;;10.80;7.80;;;;;;;11.04;98.77;98605.44;5049446;28;20251;-55
2021/12/03 14:06:28;;;;;;;8.53;5.27;;;;;;;11.05;98.67;98587.22;5047932;28;20671;-57
2021/12/03 14:43:23;;;;;;;12.03;9.07;;;;;;;10.42;100.00;98573.56;4988086;28;20214;-55
2021/12/03 14:46:24;;;;;;;14.20;8.23;;;;;;;10.45;100.00;98585.56;5012870;28;20221;-56
2021/12/03 14:49:25;;;;;;;15.90;9.03;;;;;;;10.31;100.00;98596.53;5032081;28;20749;-56
2021/12/03 14:54:47;;;;;;;16.17;9.17;;;;;;;9.98;100.00;98585.78;5030579;28;20596;-59
2021/12/03 14:57:23;;;;;;;11.70;8.47;;;;;;;9.77;100.00;98592.69;5052029;28;20694;-60
2021/12/03 14:59:58;;;;;;;8.13;6.13;;;;;;;9.56;100.00;98566.78;5052549;28;20607;-60
2021/12/03 15:02:48;;;;;;;11.23;6.63;;;;;;;9.69;100.00;98588.72;5052164;28;20215;-60
2021/12/03 15:05:28;;;;;;;13.83;7.60;;;;;;;9.62;100.00;98593.28;5051405;28;20702;-56
2021/12/03 15:07:55;;;;;;;9.43;7.83;;;;;;;9.53;100.00;98577.25;5050881;28;20351;-56
2021/12/03 15:10:32;;;;;;;10.83;7.70;;;;;;;9.44;100.00;98566.38;5048636;28;20312;-56
2021/12/03 15:13:14;;;;;;;20.23;12.30;;;;;;;9.45;100.00;98586.19;5050632;28;20224;-56
2021/12/03 15:27:02;;;;;;;24.40;9.90;;;;;;;9.50;100.00;98588.59;5049743;28;20309;-56
2021/12/03 15:32:34;;;;;;;9.70;6.37;;;;;;;9.23;100.00;98612.97;4996195;28;20222;-55
2021/12/03 15:35:08;;;;;;;22.70;9.97;;;;;;;9.29;100.00;98604.94;5039192;28;20646;-61
2021/12/03 15:37:53;;;;;;;8.63;6.10;;;;;;;9.11;100.00;98614.25;5047925;28;20227;-60
2021/12/03 15:40:51;;;;;;;8.63;6.43;;;;;;;9.08;100.00;98606.59;5051711;28;20232;-60
2021/12/03 16:08:25;;;;;;;13.70;8.83;;;;;;;9.19;100.00;98619.16;4993265;28;20214;-59
2021/12/03 16:11:00;;;;;;;40.87;8.67;;;;;;;9.23;100.00;98644.88;5049025;28;20243;-59
2021/12/03 16:13:36;;;;;;;6.43;6.00;;;;;;;9.36;100.00;98648.69;5049685;28;20290;-59
2021/12/03 16:19:03;;;;;;;24.73;10.03;;;;;;;9.26;100.00;98647.34;5049977;28;20220;-56
2021/12/03 16:51:41;;;;;;;12.70;10.20;;;;;;;9.39;100.00;98640.78;5048506;28;20231;-59
2021/12/03 16:54:10;;;;;;;9.63;6.00;;;;;;;9.49;100.00;98654.22;5049494;28;20223;-57
2021/12/03 16:56:43;;;;;;;10.33;7.57;;;;;;;9.44;100.00;98640.63;5048144;28;20274;-56
2021/12/03 16:59:10;;;;;;;10.03;7.30;;;;;;;9.34;100.00;98650.50;5047176;28;20246;-57
2021/12/03 17:01:40;;;;;;;9.23;7.23;;;;;;;9.33;100.00;98635.00;5048679;28;20229;-56
2021/12/03 17:04:19;;;;;;;17.03;6.67;;;;;;;9.35;100.00;98641.00;5048781;28;20822;-56
2021/12/03 17:09:56;;;;;;;11.17;6.07;;;;;;;9.50;100.00;98652.50;5014626;28;20255;-57
2021/12/03 17:12:40;;;;;;;9.80;7.20;;;;;;;9.53;100.00;98650.63;5050065;28;20282;-60
2021/12/03 17:48:00;;;;;;;9.77;6.10;;;;;;;9.36;100.00;98682.38;5048717;28;20228;-61
2021/12/03 17:50:47;;;;;;;12.57;8.23;;;;;;;9.41;100.00;98672.66;5048253;28;20193;-62